Loves Park, Illinois
Current Conditions -  °F | °C
As of 10:54 PM on Friday 28 Nov 2014 (Local Time) from KRFD Reporting Station
Few Clouds Few Clouds  
Wind Chill: 24°   Ceiling: Unl
Heat Index: 32°   Visibility: 8mi
Dew Point: 28°   Wind: 9mph
Humidity: 85%   Direction: 150°SSE
Pressure: 29.87"   Gusts: NA
Location:  42.32°N, 89.06°W
Report Text: KRFD 290454Z 15008KT 8SM FEW210 00/M02 A2987 RMK AO2 SLP123 T00001022
Loading
Personal Weather Stations






























Interactive Weather Map New forecast layout! Learn more

10-Day Weather Forecast

Advertisements
Track Severe Weather on mobile